sensor_id;sensor_type;location;lat;lon;timestamp;temperature;humidity
27188;DHT22;14708;50.872;5.306;2023-04-06T00:00:48;20.50;58.80
27188;DHT22;14708;50.872;5.306;2023-04-06T00:03:14;20.50;58.70
27188;DHT22;14708;50.872;5.306;2023-04-06T00:05:40;20.50;58.80
27188;DHT22;14708;50.872;5.306;2023-04-06T00:08:06;20.50;58.70
27188;DHT22;14708;50.872;5.306;2023-04-06T00:10:31;20.50;59.00
27188;DHT22;14708;50.872;5.306;2023-04-06T00:12:58;20.50;58.80
27188;DHT22;14708;50.872;5.306;2023-04-06T00:15:24;20.40;58.80
27188;DHT22;14708;50.872;5.306;2023-04-06T00:21:12;20.40;58.80
27188;DHT22;14708;50.872;5.306;2023-04-06T00:23:41;20.40;58.80
27188;DHT22;14708;50.872;5.306;2023-04-06T00:26:08;20.40;58.70
27188;DHT22;14708;50.872;5.306;2023-04-06T00:28:34;20.40;58.60
27188;DHT22;14708;50.872;5.306;2023-04-06T00:31:00;20.40;58.70
27188;DHT22;14708;50.872;5.306;2023-04-06T00:33:25;20.40;58.70
27188;DHT22;14708;50.872;5.306;2023-04-06T00:35:51;20.30;58.60
27188;DHT22;14708;50.872;5.306;2023-04-06T00:38:17;20.30;58.70
27188;DHT22;14708;50.872;5.306;2023-04-06T00:40:43;20.30;58.70
27188;DHT22;14708;50.872;5.306;2023-04-06T00:43:13;20.30;58.80
27188;DHT22;14708;50.872;5.306;2023-04-06T00:45:39;20.30;58.60
27188;DHT22;14708;50.872;5.306;2023-04-06T00:48:06;20.20;58.70
27188;DHT22;14708;50.872;5.306;2023-04-06T00:50:38;20.30;59.20
27188;DHT22;14708;50.872;5.306;2023-04-06T00:53:04;20.30;59.30
27188;DHT22;14708;50.872;5.306;2023-04-06T00:55:30;20.30;58.60
27188;DHT22;14708;50.872;5.306;2023-04-06T01:01:18;20.20;58.50
27188;DHT22;14708;50.872;5.306;2023-04-06T01:03:44;20.20;58.60
27188;DHT22;14708;50.872;5.306;2023-04-06T01:06:12;20.20;58.60
27188;DHT22;14708;50.872;5.306;2023-04-06T01:08:38;20.20;58.50
27188;DHT22;14708;50.872;5.306;2023-04-06T01:17:47;20.20;58.40
27188;DHT22;14708;50.872;5.306;2023-04-06T01:20:21;20.10;58.40
27188;DHT22;14708;50.872;5.306;2023-04-06T01:22:46;20.10;58.40
27188;DHT22;14708;50.872;5.306;2023-04-06T01:25:12;20.10;58.40
27188;DHT22;14708;50.872;5.306;2023-04-06T01:27:38;20.10;58.50
27188;DHT22;14708;50.872;5.306;2023-04-06T01:30:04;20.10;58.40
27188;DHT22;14708;50.872;5.306;2023-04-06T01:32:30;20.10;58.40
27188;DHT22;14708;50.872;5.306;2023-04-06T01:34:56;20.10;58.50
27188;DHT22;14708;50.872;5.306;2023-04-06T01:37:22;20.10;58.40
27188;DHT22;14708;50.872;5.306;2023-04-06T01:39:47;20.10;58.50
27188;DHT22;14708;50.872;5.306;2023-04-06T01:42:13;20.10;58.50
27188;DHT22;14708;50.872;5.306;2023-04-06T01:44:38;20.10;58.40
27188;DHT22;14708;50.872;5.306;2023-04-06T01:47:04;20.00;58.40
27188;DHT22;14708;50.872;5.306;2023-04-06T01:49:30;20.00;58.30
27188;DHT22;14708;50.872;5.306;2023-04-06T01:51:55;20.00;58.40
27188;DHT22;14708;50.872;5.306;2023-04-06T01:54:21;20.00;58.50
27188;DHT22;14708;50.872;5.306;2023-04-06T01:56:47;20.00;58.40
27188;DHT22;14708;50.872;5.306;2023-04-06T01:59:14;20.00;58.40
27188;DHT22;14708;50.872;5.306;2023-04-06T02:01:39;20.00;58.40
27188;DHT22;14708;50.872;5.306;2023-04-06T02:04:26;19.90;58.40
27188;DHT22;14708;50.872;5.306;2023-04-06T02:06:51;20.00;58.30
27188;DHT22;14708;50.872;5.306;2023-04-06T02:09:17;20.00;58.20
27188;DHT22;14708;50.872;5.306;2023-04-06T02:11:42;20.00;58.20
27188;DHT22;14708;50.872;5.306;2023-04-06T02:14:08;20.00;58.20
27188;DHT22;14708;50.872;5.306;2023-04-06T02:19:55;20.00;58.20
27188;DHT22;14708;50.872;5.306;2023-04-06T02:22:21;20.00;58.10
27188;DHT22;14708;50.872;5.306;2023-04-06T02:24:47;20.00;58.20
27188;DHT22;14708;50.872;5.306;2023-04-06T02:27:14;20.00;58.10
27188;DHT22;14708;50.872;5.306;2023-04-06T02:29:39;20.00;58.20
27188;DHT22;14708;50.872;5.306;2023-04-06T02:32:05;20.00;58.90
27188;DHT22;14708;50.872;5.306;2023-04-06T02:47:58;19.90;58.20
27188;DHT22;14708;50.872;5.306;2023-04-06T02:50:24;19.90;57.90
27188;DHT22;14708;50.872;5.306;2023-04-06T02:52:49;19.90;57.90
27188;DHT22;14708;50.872;5.306;2023-04-06T02:55:15;19.90;58.00
27188;DHT22;14708;50.872;5.306;2023-04-06T02:57:41;19.90;58.00
27188;DHT22;14708;50.872;5.306;2023-04-06T03:00:07;19.90;58.10
27188;DHT22;14708;50.872;5.306;2023-04-06T03:02:32;19.90;57.90
27188;DHT22;14708;50.872;5.306;2023-04-06T03:04:58;19.90;58.00
27188;DHT22;14708;50.872;5.306;2023-04-06T03:07:24;19.80;58.00
27188;DHT22;14708;50.872;5.306;2023-04-06T03:09:49;19.80;57.90
27188;DHT22;14708;50.872;5.306;2023-04-06T03:12:15;19.80;58.00
27188;DHT22;14708;50.872;5.306;2023-04-06T03:14:41;19.80;57.90
27188;DHT22;14708;50.872;5.306;2023-04-06T03:17:06;19.80;57.90
27188;DHT22;14708;50.872;5.306;2023-04-06T03:19:32;19.80;57.90
27188;DHT22;14708;50.872;5.306;2023-04-06T03:21:59;19.80;58.00
27188;DHT22;14708;50.872;5.306;2023-04-06T03:24:24;19.80;58.00
27188;DHT22;14708;50.872;5.306;2023-04-06T03:26:50;19.80;58.10
27188;DHT22;14708;50.872;5.306;2023-04-06T03:29:15;19.80;58.10
27188;DHT22;14708;50.872;5.306;2023-04-06T03:31:41;19.70;58.00
27188;DHT22;14708;50.872;5.306;2023-04-06T03:34:07;19.70;57.90
27188;DHT22;14708;50.872;5.306;2023-04-06T03:36:34;19.80;58.00
27188;DHT22;14708;50.872;5.306;2023-04-06T03:39:00;19.70;57.80
27188;DHT22;14708;50.872;5.306;2023-04-06T03:41:31;19.70;58.00
27188;DHT22;14708;50.872;5.306;2023-04-06T03:43:59;19.70;57.90
27188;DHT22;14708;50.872;5.306;2023-04-06T03:46:25;19.70;57.90
27188;DHT22;14708;50.872;5.306;2023-04-06T03:48:50;19.70;57.90
27188;DHT22;14708;50.872;5.306;2023-04-06T03:51:16;19.70;58.00
27188;DHT22;14708;50.872;5.306;2023-04-06T03:53:42;19.70;58.00
27188;DHT22;14708;50.872;5.306;2023-04-06T03:56:08;19.70;58.00
27188;DHT22;14708;50.872;5.306;2023-04-06T03:58:33;19.60;57.80
27188;DHT22;14708;50.872;5.306;2023-04-06T04:00:59;19.60;57.80
27188;DHT22;14708;50.872;5.306;2023-04-06T04:03:25;19.70;58.00
27188;DHT22;14708;50.872;5.306;2023-04-06T04:05:53;19.70;58.00
27188;DHT22;14708;50.872;5.306;2023-04-06T04:08:19;19.60;57.80
27188;DHT22;14708;50.872;5.306;2023-04-06T04:10:45;19.60;57.70
27188;DHT22;14708;50.872;5.306;2023-04-06T04:13:10;19.60;57.90
27188;DHT22;14708;50.872;5.306;2023-04-06T04:15:36;19.60;57.80
27188;DHT22;14708;50.872;5.306;2023-04-06T04:18:02;19.60;57.90
27188;DHT22;14708;50.872;5.306;2023-04-06T04:20:27;19.60;57.90
27188;DHT22;14708;50.872;5.306;2023-04-06T04:22:53;19.60;58.00
27188;DHT22;14708;50.872;5.306;2023-04-06T04:25:23;19.60;57.90
27188;DHT22;14708;50.872;5.306;2023-04-06T04:27:56;19.50;57.80
27188;DHT22;14708;50.872;5.306;2023-04-06T04:30:21;19.50;57.70
27188;DHT22;14708;50.872;5.306;2023-04-06T04:32:47;19.50;57.80
27188;DHT22;14708;50.872;5.306;2023-04-06T04:35:13;19.50;57.90
27188;DHT22;14708;50.872;5.306;2023-04-06T04:37:40;19.50;58.00
27188;DHT22;14708;50.872;5.306;2023-04-06T04:40:06;19.50;57.90
27188;DHT22;14708;50.872;5.306;2023-04-06T04:42:32;19.50;57.90
27188;DHT22;14708;50.872;5.306;2023-04-06T04:44:57;19.50;57.90
27188;DHT22;14708;50.872;5.306;2023-04-06T04:47:23;19.50;57.90
27188;DHT22;14708;50.872;5.306;2023-04-06T04:49:48;19.50;57.90
27188;DHT22;14708;50.872;5.306;2023-04-06T04:52:14;19.50;57.70
27188;DHT22;14708;50.872;5.306;2023-04-06T04:54:40;19.50;57.90
27188;DHT22;14708;50.872;5.306;2023-04-06T04:57:06;19.50;57.90
27188;DHT22;14708;50.872;5.306;2023-04-06T04:59:33;19.40;57.90
27188;DHT22;14708;50.872;5.306;2023-04-06T05:01:59;19.40;57.90
27188;DHT22;14708;50.872;5.306;2023-04-06T05:04:24;19.40;57.80
27188;DHT22;14708;50.872;5.306;2023-04-06T05:06:50;19.50;57.70
27188;DHT22;14708;50.872;5.306;2023-04-06T05:09:16;19.40;57.90
27188;DHT22;14708;50.872;5.306;2023-04-06T05:11:50;19.40;54.40
27188;DHT22;14708;50.872;5.306;2023-04-06T05:14:15;19.50;57.20
27188;DHT22;14708;50.872;5.306;2023-04-06T05:16:42;19.50;57.30
27188;DHT22;14708;50.872;5.306;2023-04-06T05:19:07;19.50;57.60
27188;DHT22;14708;50.872;5.306;2023-04-06T05:21:33;19.60;57.40
27188;DHT22;14708;50.872;5.306;2023-04-06T05:23:58;19.60;57.60
27188;DHT22;14708;50.872;5.306;2023-04-06T05:26:24;19.60;57.40
27188;DHT22;14708;50.872;5.306;2023-04-06T05:28:50;19.70;58.00
27188;DHT22;14708;50.872;5.306;2023-04-06T05:31:16;19.90;58.00
27188;DHT22;14708;50.872;5.306;2023-04-06T05:33:42;20.00;57.80
27188;DHT22;14708;50.872;5.306;2023-04-06T05:36:08;20.10;57.70
27188;DHT22;14708;50.872;5.306;2023-04-06T05:38:33;20.20;57.40
27188;DHT22;14708;50.872;5.306;2023-04-06T05:40:59;20.20;57.50
27188;DHT22;14708;50.872;5.306;2023-04-06T05:43:25;20.20;57.40
27188;DHT22;14708;50.872;5.306;2023-04-06T05:45:50;20.20;57.40
27188;DHT22;14708;50.872;5.306;2023-04-06T05:48:16;20.20;57.50
27188;DHT22;14708;50.872;5.306;2023-04-06T05:54:04;20.10;57.60
27188;DHT22;14708;50.872;5.306;2023-04-06T05:56:30;20.00;57.60
27188;DHT22;14708;50.872;5.306;2023-04-06T05:58:57;20.00;57.80
27188;DHT22;14708;50.872;5.306;2023-04-06T06:01:22;20.00;58.00
27188;DHT22;14708;50.872;5.306;2023-04-06T06:03:48;19.90;58.00
27188;DHT22;14708;50.872;5.306;2023-04-06T06:06:14;19.90;58.10
27188;DHT22;14708;50.872;5.306;2023-04-06T06:08:57;19.80;58.10
27188;DHT22;14708;50.872;5.306;2023-04-06T06:11:26;19.80;58.20
27188;DHT22;14708;50.872;5.306;2023-04-06T06:13:52;19.90;56.60
27188;DHT22;14708;50.872;5.306;2023-04-06T06:16:19;20.00;57.00
27188;DHT22;14708;50.872;5.306;2023-04-06T06:18:45;20.00;57.30
27188;DHT22;14708;50.872;5.306;2023-04-06T06:21:10;20.00;56.90
27188;DHT22;14708;50.872;5.306;2023-04-06T06:23:39;19.90;57.10
27188;DHT22;14708;50.872;5.306;2023-04-06T06:26:05;19.90;57.30
27188;DHT22;14708;50.872;5.306;2023-04-06T06:28:31;19.90;57.60
27188;DHT22;14708;50.872;5.306;2023-04-06T06:30:57;19.90;57.90
27188;DHT22;14708;50.872;5.306;2023-04-06T06:33:23;19.90;58.00
27188;DHT22;14708;50.872;5.306;2023-04-06T06:35:50;19.90;57.60
27188;DHT22;14708;50.872;5.306;2023-04-06T06:38:16;20.00;57.40
27188;DHT22;14708;50.872;5.306;2023-04-06T06:41:02;20.00;57.40
27188;DHT22;14708;50.872;5.306;2023-04-06T06:43:28;20.10;57.30
27188;DHT22;14708;50.872;5.306;2023-04-06T06:45:53;20.20;57.20
27188;DHT22;14708;50.872;5.306;2023-04-06T06:48:19;20.20;57.30
27188;DHT22;14708;50.872;5.306;2023-04-06T06:50:47;20.10;57.40
27188;DHT22;14708;50.872;5.306;2023-04-06T06:53:14;20.10;57.60
27188;DHT22;14708;50.872;5.306;2023-04-06T06:55:40;20.20;57.20
27188;DHT22;14708;50.872;5.306;2023-04-06T06:58:06;20.30;57.50
27188;DHT22;14708;50.872;5.306;2023-04-06T07:00:32;20.30;57.40
27188;DHT22;14708;50.872;5.306;2023-04-06T07:02:58;20.30;57.80
27188;DHT22;14708;50.872;5.306;2023-04-06T07:05:24;20.30;58.00
27188;DHT22;14708;50.872;5.306;2023-04-06T07:07:50;20.30;56.70
27188;DHT22;14708;50.872;5.306;2023-04-06T07:10:15;20.30;58.00
27188;DHT22;14708;50.872;5.306;2023-04-06T07:12:41;20.20;58.00
27188;DHT22;14708;50.872;5.306;2023-04-06T07:15:07;20.10;58.70
27188;DHT22;14708;50.872;5.306;2023-04-06T07:17:35;20.00;59.00
27188;DHT22;14708;50.872;5.306;2023-04-06T07:20:06;20.00;59.30
27188;DHT22;14708;50.872;5.306;2023-04-06T07:22:32;19.90;59.50
27188;DHT22;14708;50.872;5.306;2023-04-06T07:24:58;19.90;59.50
27188;DHT22;14708;50.872;5.306;2023-04-06T07:27:24;19.90;59.50
27188;DHT22;14708;50.872;5.306;2023-04-06T07:29:49;20.00;59.60
27188;DHT22;14708;50.872;5.306;2023-04-06T07:32:15;20.00;59.60
27188;DHT22;14708;50.872;5.306;2023-04-06T07:34:41;20.10;60.10
27188;DHT22;14708;50.872;5.306;2023-04-06T07:37:06;20.10;59.50
27188;DHT22;14708;50.872;5.306;2023-04-06T07:39:32;20.00;59.40
27188;DHT22;14708;50.872;5.306;2023-04-06T07:41:57;20.10;59.20
27188;DHT22;14708;50.872;5.306;2023-04-06T07:44:23;20.10;57.70
27188;DHT22;14708;50.872;5.306;2023-04-06T07:46:49;20.20;58.20
27188;DHT22;14708;50.872;5.306;2023-04-06T07:49:14;20.20;58.10
27188;DHT22;14708;50.872;5.306;2023-04-06T07:51:40;20.10;57.70
27188;DHT22;14708;50.872;5.306;2023-04-06T07:54:06;20.10;58.20
27188;DHT22;14708;50.872;5.306;2023-04-06T07:56:32;20.10;57.50
27188;DHT22;14708;50.872;5.306;2023-04-06T08:05:46;20.10;58.60
27188;DHT22;14708;50.872;5.306;2023-04-06T08:08:11;20.10;58.80
27188;DHT22;14708;50.872;5.306;2023-04-06T08:10:37;20.10;58.50
27188;DHT22;14708;50.872;5.306;2023-04-06T08:13:03;20.20;58.40
27188;DHT22;14708;50.872;5.306;2023-04-06T08:15:28;20.20;58.40
27188;DHT22;14708;50.872;5.306;2023-04-06T08:17:54;20.20;58.50
27188;DHT22;14708;50.872;5.306;2023-04-06T08:20:22;20.20;58.20
27188;DHT22;14708;50.872;5.306;2023-04-06T08:22:48;20.20;58.60
27188;DHT22;14708;50.872;5.306;2023-04-06T08:25:14;20.20;59.10
27188;DHT22;14708;50.872;5.306;2023-04-06T08:27:42;20.20;58.90
27188;DHT22;14708;50.872;5.306;2023-04-06T08:30:07;20.10;59.20
27188;DHT22;14708;50.872;5.306;2023-04-06T08:32:36;20.20;59.30
27188;DHT22;14708;50.872;5.306;2023-04-06T08:41:54;20.30;59.00
27188;DHT22;14708;50.872;5.306;2023-04-06T08:44:31;20.40;58.90
27188;DHT22;14708;50.872;5.306;2023-04-06T08:46:59;20.30;59.00
27188;DHT22;14708;50.872;5.306;2023-04-06T08:49:24;20.20;60.10
27188;DHT22;14708;50.872;5.306;2023-04-06T08:51:51;20.20;60.70
27188;DHT22;14708;50.872;5.306;2023-04-06T08:54:17;20.20;59.80
27188;DHT22;14708;50.872;5.306;2023-04-06T09:03:30;20.10;59.80
27188;DHT22;14708;50.872;5.306;2023-04-06T09:05:57;20.20;59.90
27188;DHT22;14708;50.872;5.306;2023-04-06T09:08:23;20.20;59.80
27188;DHT22;14708;50.872;5.306;2023-04-06T09:10:49;20.30;59.10
27188;DHT22;14708;50.872;5.306;2023-04-06T09:13:15;20.40;58.60
27188;DHT22;14708;50.872;5.306;2023-04-06T09:15:40;20.20;59.30
27188;DHT22;14708;50.872;5.306;2023-04-06T09:18:06;20.10;59.50
27188;DHT22;14708;50.872;5.306;2023-04-06T09:20:33;20.00;60.00
27188;DHT22;14708;50.872;5.306;2023-04-06T09:22:58;20.00;60.20
27188;DHT22;14708;50.872;5.306;2023-04-06T09:25:26;20.00;59.20
27188;DHT22;14708;50.872;5.306;2023-04-06T09:28:03;20.10;59.30
27188;DHT22;14708;50.872;5.306;2023-04-06T09:30:29;20.00;60.00
27188;DHT22;14708;50.872;5.306;2023-04-06T09:32:56;20.00;65.20
27188;DHT22;14708;50.872;5.306;2023-04-06T09:35:27;20.00;70.30
27188;DHT22;14708;50.872;5.306;2023-04-06T09:37:55;20.00;73.50
27188;DHT22;14708;50.872;5.306;2023-04-06T09:40:21;19.90;74.00
27188;DHT22;14708;50.872;5.306;2023-04-06T09:42:48;19.90;75.10
27188;DHT22;14708;50.872;5.306;2023-04-06T09:45:17;19.80;74.60
27188;DHT22;14708;50.872;5.306;2023-04-06T09:47:45;19.80;73.50
27188;DHT22;14708;50.872;5.306;2023-04-06T09:50:12;19.80;72.70
27188;DHT22;14708;50.872;5.306;2023-04-06T09:52:51;19.80;71.60
27188;DHT22;14708;50.872;5.306;2023-04-06T09:55:26;19.80;70.40
27188;DHT22;14708;50.872;5.306;2023-04-06T09:58:18;19.80;68.40
27188;DHT22;14708;50.872;5.306;2023-04-06T10:06:04;19.90;66.90
27188;DHT22;14708;50.872;5.306;2023-04-06T10:08:32;19.90;66.90
27188;DHT22;14708;50.872;5.306;2023-04-06T10:10:58;19.90;66.70
27188;DHT22;14708;50.872;5.306;2023-04-06T10:13:26;19.90;66.70
27188;DHT22;14708;50.872;5.306;2023-04-06T10:15:55;19.90;67.00
27188;DHT22;14708;50.872;5.306;2023-04-06T10:18:21;19.90;66.50
27188;DHT22;14708;50.872;5.306;2023-04-06T10:20:57;19.90;66.40
27188;DHT22;14708;50.872;5.306;2023-04-06T10:23:36;19.90;66.60
27188;DHT22;14708;50.872;5.306;2023-04-06T10:26:03;19.90;66.50
27188;DHT22;14708;50.872;5.306;2023-04-06T10:28:34;19.90;65.80
27188;DHT22;14708;50.872;5.306;2023-04-06T10:31:04;19.90;65.00
27188;DHT22;14708;50.872;5.306;2023-04-06T10:33:57;19.90;65.60
27188;DHT22;14708;50.872;5.306;2023-04-06T10:36:25;19.80;65.40
27188;DHT22;14708;50.872;5.306;2023-04-06T10:39:05;19.80;65.70
27188;DHT22;14708;50.872;5.306;2023-04-06T10:41:41;19.70;65.90
27188;DHT22;14708;50.872;5.306;2023-04-06T10:44:17;19.80;65.00
27188;DHT22;14708;50.872;5.306;2023-04-06T10:46:55;19.70;65.40
27188;DHT22;14708;50.872;5.306;2023-04-06T10:49:21;19.80;64.00
27188;DHT22;14708;50.872;5.306;2023-04-06T10:51:52;19.80;65.20
27188;DHT22;14708;50.872;5.306;2023-04-06T10:54:20;19.70;65.90
27188;DHT22;14708;50.872;5.306;2023-04-06T10:56:46;19.80;65.60
27188;DHT22;14708;50.872;5.306;2023-04-06T10:59:12;19.70;65.90
27188;DHT22;14708;50.872;5.306;2023-04-06T11:01:38;19.50;65.80
27188;DHT22;14708;50.872;5.306;2023-04-06T11:04:09;19.70;65.00
27188;DHT22;14708;50.872;5.306;2023-04-06T11:06:39;19.70;64.50
27188;DHT22;14708;50.872;5.306;2023-04-06T11:09:04;19.70;64.00
27188;DHT22;14708;50.872;5.306;2023-04-06T11:11:30;19.70;64.00
27188;DHT22;14708;50.872;5.306;2023-04-06T11:13:59;19.80;64.00
27188;DHT22;14708;50.872;5.306;2023-04-06T11:16:30;19.80;63.20
27188;DHT22;14708;50.872;5.306;2023-04-06T11:19:01;19.90;63.50
27188;DHT22;14708;50.872;5.306;2023-04-06T11:21:44;19.80;61.10
27188;DHT22;14708;50.872;5.306;2023-04-06T11:24:17;19.80;59.50
27188;DHT22;14708;50.872;5.306;2023-04-06T11:26:47;19.80;58.40
27188;DHT22;14708;50.872;5.306;2023-04-06T11:29:17;19.80;58.90
27188;DHT22;14708;50.872;5.306;2023-04-06T11:31:51;19.80;58.90
27188;DHT22;14708;50.872;5.306;2023-04-06T11:34:22;19.80;58.80
27188;DHT22;14708;50.872;5.306;2023-04-06T11:36:53;19.80;58.80
27188;DHT22;14708;50.872;5.306;2023-04-06T11:39:21;19.80;58.10
27188;DHT22;14708;50.872;5.306;2023-04-06T11:41:50;19.70;58.00
27188;DHT22;14708;50.872;5.306;2023-04-06T11:44:26;19.70;58.70
27188;DHT22;14708;50.872;5.306;2023-04-06T11:46:53;19.80;58.80
27188;DHT22;14708;50.872;5.306;2023-04-06T11:49:19;19.80;59.10
27188;DHT22;14708;50.872;5.306;2023-04-06T11:58:29;19.90;59.30
27188;DHT22;14708;50.872;5.306;2023-04-06T12:01:03;19.90;59.90
27188;DHT22;14708;50.872;5.306;2023-04-06T12:03:29;20.00;59.60
27188;DHT22;14708;50.872;5.306;2023-04-06T12:05:54;19.90;60.40
27188;DHT22;14708;50.872;5.306;2023-04-06T12:08:20;19.90;61.00
27188;DHT22;14708;50.872;5.306;2023-04-06T12:10:50;19.80;62.20
27188;DHT22;14708;50.872;5.306;2023-04-06T12:13:16;19.80;63.00
27188;DHT22;14708;50.872;5.306;2023-04-06T12:15:42;19.70;62.90
27188;DHT22;14708;50.872;5.306;2023-04-06T12:18:16;19.70;63.20
27188;DHT22;14708;50.872;5.306;2023-04-06T12:24:06;19.70;63.20
27188;DHT22;14708;50.872;5.306;2023-04-06T12:26:32;19.60;63.10
27188;DHT22;14708;50.872;5.306;2023-04-06T12:29:01;19.70;63.00
27188;DHT22;14708;50.872;5.306;2023-04-06T12:31:32;19.70;63.10
27188;DHT22;14708;50.872;5.306;2023-04-06T12:34:02;19.70;63.00
27188;DHT22;14708;50.872;5.306;2023-04-06T12:36:28;19.70;62.80
27188;DHT22;14708;50.872;5.306;2023-04-06T12:38:55;19.60;62.90
27188;DHT22;14708;50.872;5.306;2023-04-06T12:41:21;19.60;63.10
27188;DHT22;14708;50.872;5.306;2023-04-06T12:43:48;19.50;63.00
27188;DHT22;14708;50.872;5.306;2023-04-06T12:46:15;19.50;63.20
27188;DHT22;14708;50.872;5.306;2023-04-06T12:48:41;19.60;63.00
27188;DHT22;14708;50.872;5.306;2023-04-06T12:51:07;19.70;63.20
27188;DHT22;14708;50.872;5.306;2023-04-06T12:53:33;19.70;63.00
27188;DHT22;14708;50.872;5.306;2023-04-06T12:56:02;19.90;63.00
27188;DHT22;14708;50.872;5.306;2023-04-06T13:08:34;20.10;62.00
27188;DHT22;14708;50.872;5.306;2023-04-06T13:11:01;20.10;62.10
27188;DHT22;14708;50.872;5.306;2023-04-06T13:13:28;20.10;62.30
27188;DHT22;14708;50.872;5.306;2023-04-06T13:15:55;20.00;62.30
27188;DHT22;14708;50.872;5.306;2023-04-06T13:18:24;20.00;63.30
27188;DHT22;14708;50.872;5.306;2023-04-06T13:20:50;20.00;62.70
27188;DHT22;14708;50.872;5.306;2023-04-06T13:23:15;20.00;62.60
27188;DHT22;14708;50.872;5.306;2023-04-06T13:26:00;20.10;61.70
27188;DHT22;14708;50.872;5.306;2023-04-06T13:28:26;20.10;61.60
27188;DHT22;14708;50.872;5.306;2023-04-06T13:30:53;20.10;62.00
27188;DHT22;14708;50.872;5.306;2023-04-06T13:33:18;20.00;62.00
27188;DHT22;14708;50.872;5.306;2023-04-06T13:35:45;19.90;62.10
27188;DHT22;14708;50.872;5.306;2023-04-06T13:38:11;19.90;63.00
27188;DHT22;14708;50.872;5.306;2023-04-06T13:40:39;19.90;62.30
27188;DHT22;14708;50.872;5.306;2023-04-06T13:43:05;19.80;62.20
27188;DHT22;14708;50.872;5.306;2023-04-06T13:45:31;19.80;62.50
27188;DHT22;14708;50.872;5.306;2023-04-06T13:47:57;19.80;62.60
27188;DHT22;14708;50.872;5.306;2023-04-06T13:50:25;19.80;62.80
27188;DHT22;14708;50.872;5.306;2023-04-06T13:52:51;19.70;62.60
27188;DHT22;14708;50.872;5.306;2023-04-06T13:55:17;19.70;62.70
27188;DHT22;14708;50.872;5.306;2023-04-06T13:57:42;19.70;62.70
27188;DHT22;14708;50.872;5.306;2023-04-06T14:03:46;19.70;62.50
27188;DHT22;14708;50.872;5.306;2023-04-06T14:06:16;19.80;62.40
27188;DHT22;14708;50.872;5.306;2023-04-06T14:08:42;19.80;62.60
27188;DHT22;14708;50.872;5.306;2023-04-06T14:11:11;19.80;62.50
27188;DHT22;14708;50.872;5.306;2023-04-06T14:13:38;19.80;62.20
27188;DHT22;14708;50.872;5.306;2023-04-06T14:16:03;19.80;62.30
27188;DHT22;14708;50.872;5.306;2023-04-06T14:18:29;19.80;62.20
27188;DHT22;14708;50.872;5.306;2023-04-06T14:20:57;19.80;62.10
27188;DHT22;14708;50.872;5.306;2023-04-06T14:23:23;19.80;62.00
27188;DHT22;14708;50.872;5.306;2023-04-06T14:25:52;19.80;62.10
27188;DHT22;14708;50.872;5.306;2023-04-06T14:28:17;19.80;62.60
27188;DHT22;14708;50.872;5.306;2023-04-06T14:30:43;19.70;62.00
27188;DHT22;14708;50.872;5.306;2023-04-06T14:33:09;19.70;62.10
27188;DHT22;14708;50.872;5.306;2023-04-06T14:35:38;19.70;62.10
27188;DHT22;14708;50.872;5.306;2023-04-06T14:38:04;19.70;62.10
27188;DHT22;14708;50.872;5.306;2023-04-06T14:40:29;19.70;62.30
27188;DHT22;14708;50.872;5.306;2023-04-06T14:42:55;19.80;62.10
27188;DHT22;14708;50.872;5.306;2023-04-06T14:45:37;19.70;62.10
27188;DHT22;14708;50.872;5.306;2023-04-06T14:48:04;19.80;62.20
27188;DHT22;14708;50.872;5.306;2023-04-06T14:50:32;19.80;62.10
27188;DHT22;14708;50.872;5.306;2023-04-06T14:52:58;19.80;62.00
27188;DHT22;14708;50.872;5.306;2023-04-06T14:55:25;19.70;61.90
27188;DHT22;14708;50.872;5.306;2023-04-06T14:57:51;19.80;61.60
27188;DHT22;14708;50.872;5.306;2023-04-06T15:00:16;19.90;62.20
27188;DHT22;14708;50.872;5.306;2023-04-06T15:02:47;20.00;58.30
27188;DHT22;14708;50.872;5.306;2023-04-06T15:05:13;20.10;56.80
27188;DHT22;14708;50.872;5.306;2023-04-06T15:07:39;20.20;58.00
27188;DHT22;14708;50.872;5.306;2023-04-06T15:10:05;20.30;58.80
27188;DHT22;14708;50.872;5.306;2023-04-06T15:12:31;20.30;59.30
27188;DHT22;14708;50.872;5.306;2023-04-06T15:14:58;20.40;60.10
27188;DHT22;14708;50.872;5.306;2023-04-06T15:17:23;20.50;59.40
27188;DHT22;14708;50.872;5.306;2023-04-06T15:19:51;20.60;59.50
27188;DHT22;14708;50.872;5.306;2023-04-06T15:22:20;20.70;59.40
27188;DHT22;14708;50.872;5.306;2023-04-06T15:24:46;20.80;58.90
27188;DHT22;14708;50.872;5.306;2023-04-06T15:27:12;20.90;58.90
27188;DHT22;14708;50.872;5.306;2023-04-06T15:29:37;20.90;59.10
27188;DHT22;14708;50.872;5.306;2023-04-06T15:32:03;20.90;58.90
27188;DHT22;14708;50.872;5.306;2023-04-06T15:34:47;21.00;59.10
27188;DHT22;14708;50.872;5.306;2023-04-06T15:37:12;21.00;59.10
27188;DHT22;14708;50.872;5.306;2023-04-06T15:39:38;21.00;59.70
27188;DHT22;14708;50.872;5.306;2023-04-06T15:42:04;21.00;59.40
27188;DHT22;14708;50.872;5.306;2023-04-06T15:44:29;20.90;59.60
27188;DHT22;14708;50.872;5.306;2023-04-06T15:46:55;20.90;60.10
27188;DHT22;14708;50.872;5.306;2023-04-06T15:49:21;20.80;60.10
27188;DHT22;14708;50.872;5.306;2023-04-06T15:51:47;20.70;59.70
27188;DHT22;14708;50.872;5.306;2023-04-06T15:54:13;20.60;60.10
27188;DHT22;14708;50.872;5.306;2023-04-06T15:56:47;20.50;60.70
27188;DHT22;14708;50.872;5.306;2023-04-06T15:59:13;20.50;61.10
27188;DHT22;14708;50.872;5.306;2023-04-06T16:01:39;20.50;61.40
27188;DHT22;14708;50.872;5.306;2023-04-06T16:04:08;20.50;61.30
27188;DHT22;14708;50.872;5.306;2023-04-06T16:06:35;20.50;61.60
27188;DHT22;14708;50.872;5.306;2023-04-06T16:09:01;20.60;61.80
27188;DHT22;14708;50.872;5.306;2023-04-06T16:11:27;20.60;61.60
27188;DHT22;14708;50.872;5.306;2023-04-06T16:13:53;20.70;61.30
27188;DHT22;14708;50.872;5.306;2023-04-06T16:23:41;21.10;60.90
27188;DHT22;14708;50.872;5.306;2023-04-06T16:26:11;21.20;60.70
27188;DHT22;14708;50.872;5.306;2023-04-06T16:28:37;21.30;60.90
27188;DHT22;14708;50.872;5.306;2023-04-06T16:31:02;21.30;60.70
27188;DHT22;14708;50.872;5.306;2023-04-06T16:33:35;21.30;60.70
27188;DHT22;14708;50.872;5.306;2023-04-06T16:36:01;21.30;60.80
27188;DHT22;14708;50.872;5.306;2023-04-06T16:38:27;21.30;60.80
27188;DHT22;14708;50.872;5.306;2023-04-06T16:51:22;21.20;61.40
27188;DHT22;14708;50.872;5.306;2023-04-06T16:53:48;21.20;61.70
27188;DHT22;14708;50.872;5.306;2023-04-06T16:56:14;21.10;61.90
27188;DHT22;14708;50.872;5.306;2023-04-06T16:58:39;21.10;61.90
27188;DHT22;14708;50.872;5.306;2023-04-06T17:01:05;21.10;61.80
27188;DHT22;14708;50.872;5.306;2023-04-06T17:13:40;21.20;62.00
27188;DHT22;14708;50.872;5.306;2023-04-06T17:16:06;21.30;61.60
27188;DHT22;14708;50.872;5.306;2023-04-06T17:18:39;21.40;61.40
27188;DHT22;14708;50.872;5.306;2023-04-06T17:21:08;21.50;61.30